This is the latest recevied weather packets stored in our database for station/object WE3WEE. If no packets are shown the sender has not sent any weather packets the latest 10 day(s).
| Time | Temp. | Humidity | Pressure | Rain* | Wind** | Luminosity | Snow |
|---|---|---|---|---|---|---|---|
| 1777813906 | 7.22° C | 57% | 1014.8 hPa | 0 mm | - | - | - |
| 1777813603 | 6.67° C | 57% | 1014.8 hPa | 0 mm | - | - | - |
| 1777813301 | 6.67° C | 57% | 1014.8 hPa | 0 mm | - | - | - |
| 1777812998 | 6.67° C | 59% | 1014.8 hPa | 0 mm | - | - | - |
| 1777812696 | 6.67° C | 59% | 1014.8 hPa | 0 mm | - | - | - |
| 1777812392 | 6.67° C | 63% | 1014.8 hPa | 0 mm | - | - | - |
| 1777812091 | 6.11° C | 62% | 1014.8 hPa | 0 mm | - | - | - |
| 1777811789 | 6.67° C | 63% | 1014.8 hPa | 0 mm | - | - | - |
| 1777811485 | 6.67° C | 64% | 1014.8 hPa | 0 mm | - | - | - |
| 1777811181 | 6.11° C | 69% | 1014.8 hPa | 0 mm | - | - | - |
| 1777810879 | 6.11° C | 66% | 1014.8 hPa | 0 mm | - | - | - |
| 1777810575 | 6.11° C | 68% | 1014.8 hPa | 0 mm | - | - | - |
| 1777810273 | 6.11° C | 69% | 1014.8 hPa | 0 mm | - | - | - |
| 1777809968 | 6.67° C | 67% | 1014.8 hPa | 0 mm | - | - | - |
| 1777809666 | 5.56° C | 73% | 1014.8 hPa | 0 mm | - | - | - |
| 1777809364 | 5° C | 72% | 1014.8 hPa | 0 mm | - | - | - |
| 1777809061 | 3.89° C | 78% | 1014.8 hPa | 0 mm | - | - | - |
| 1777808759 | 3.89° C | 80% | 1014.8 hPa | 0 mm | - | - | - |
| 1777808455 | 3.33° C | 79% | 1014.8 hPa | 0 mm | - | - | - |
| 1777808153 | 3.33° C | 79% | 1014.8 hPa | 0 mm | - | - | - |
| 1777807851 | 3.33° C | 81% | 1014.8 hPa | 0 mm | - | - | - |
| 1777807549 | 3.33° C | 80% | 1014.8 hPa | 0 mm | - | - | - |
| 1777807245 | 2.78° C | 82% | 1014.8 hPa | 0 mm | - | - | - |
| 1777806942 | 2.78° C | 82% | 1014.8 hPa | 0 mm | - | - | - |
| 1777806638 | 2.78° C | 82% | 1014.8 hPa | 0 mm | - | - | - |
* Rain latest hour (hover to see other rain measurements)
** Current wind speed in m/s (hover to see current wind gust speed)